This is the latest recevied weather packets stored in our database for station/object TA3HRJ-12. If no packets are shown the sender has not sent any weather packets the latest 10 day(s).
| Time | Temp. | Humidity | Pressure | Rain* | Wind** | Luminosity | Snow |
|---|---|---|---|---|---|---|---|
| 1777711185 | 17.78° C | 30% | 1025.4 hPa | - | - | - | - |
| 1777710285 | 17.22° C | 30% | 1025.3 hPa | - | - | - | - |
| 1777709385 | 18.33° C | 28% | 1025.4 hPa | - | - | - | - |
| 1777708485 | 15.56° C | 32% | 1025.5 hPa | - | - | - | - |
| 1777707585 | 16.11° C | 31% | 1025.4 hPa | - | - | - | - |
| 1777706685 | 17.78° C | 29% | 1025.3 hPa | - | - | - | - |
| 1777705785 | 17.22° C | 30% | 1025.6 hPa | - | - | - | - |
| 1777704885 | 16.11° C | 32% | 1025.7 hPa | - | - | - | - |
| 1777703984 | 16.67° C | 31% | 1025.5 hPa | - | - | - | - |
| 1777703084 | 16.11° C | 33% | 1025.6 hPa | - | - | - | - |
| 1777702184 | 13.89° C | 37% | 1025.6 hPa | - | - | - | - |
| 1777701284 | 15.56° C | 34% | 1025.5 hPa | - | - | - | - |
| 1777700384 | 16.11° C | 35% | 1025.5 hPa | - | - | - | - |
| 1777699483 | 15° C | 36% | 1025.4 hPa | - | - | - | - |
| 1777698583 | 15° C | 37% | 1025.2 hPa | - | - | - | - |
| 1777697683 | 14.44° C | 38% | 1025.5 hPa | - | - | - | - |
| 1777696783 | 13.33° C | 38% | 1025.7 hPa | - | - | - | - |
| 1777695883 | 13.33° C | 39% | 1025.7 hPa | - | - | - | - |
| 1777694983 | 13.33° C | 39% | 1025.7 hPa | - | - | - | - |
| 1777694083 | 13.33° C | 40% | 1025.7 hPa | - | - | - | - |
| 1777693183 | 13.33° C | 39% | 1025.5 hPa | - | - | - | - |
| 1777692283 | 12.78° C | 39% | 1025.3 hPa | - | - | - | - |
| 1777691383 | 12.78° C | 39% | 1025.5 hPa | - | - | - | - |
| 1777690482 | 13.33° C | 38% | 1025.2 hPa | - | - | - | - |
| 1777689583 | 12.78° C | 38% | 1025.4 hPa | - | - | - | - |
* Rain since midnight (hover to see other rain measurements)
** Current wind speed in m/s (hover to see current wind gust speed)